Weather History for Provincetown, MA

Change the Weather History Date:

Monday, February 6, 2012

  Actual Average Record
Temperature  
Mean Temperature 38 °F -  
Max Temperature 46 °F 35 °F 50 °F (1953)
Min Temperature 30 °F 25 °F 14 °F (2014)
Degree Days  
Heating Degree Days 27    
Moisture  
Dew Point 24 °F    
Average Humidity 58    
Maximum Humidity 70    
Minimum Humidity 46    
Precipitation  
Precipitation 0.00 in - - ()
Sea Level Pressure  
Sea Level Pressure 29.96 in    
Wind  
Wind Speed 16 mph (WSW)    
Max Wind Speed 24 mph    
Max Gust Speed 30 mph    
Visibility 10 miles    
Events      
Averages and records for this station are not official NWS values.
T = Trace of Precipitation, MM = Missing Value Source: NWS Daily Summary

Daily Weather History Graph

Daily Weather History Graph

Search for Another Location

Airport:

Trip Planner

Search our weather history database for the weather conditions in past years. The results will help you decide how hot, cold, wet, or windy it might be!

Date:

Astronomy

Feb. 06, 2012 Rise Set
Actual Time 6:48 AM EST 5:01 PM EST
Civil Twilight 6:19 AM EST 5:30 PM EST
Nautical Twilight 5:46 AM EST 6:03 PM EST
Astronomical Twilight 5:13 AM EST 6:36 PM EST
Moon 4:01 PM EST (2/6) 5:39 AM EST (2/6)
Length of Visible Light 11h 11m
Length of Day
10h 12m
Waxing Gibbous, 98% of the Moon is Illuminated
Feb 6
Waxing Gibbous
Feb 7
Full
Feb 14
Last Quarter
Feb 21
New
Feb 29
First Quarter

Hourly Weather History & Observations

Time (EST) Temp. Windchill Dew Point Humidity Pressure Visibility Wind Dir Wind Speed Gust Speed Precip Events Conditions
12:15 AM 33.8 °F 25.8 °F 17.6 °F 52% 30.08 in 10.0 mi West 10.4 mph - N/A   Clear
12:35 AM 33.8 °F 24.8 °F 19.4 °F 56% 30.08 in 10.0 mi West 12.7 mph - N/A   Clear
12:55 AM 33.8 °F 25.3 °F 19.4 °F 56% 30.07 in 10.0 mi West 11.5 mph - N/A   Clear
1:15 AM 33.8 °F 24.8 °F 15.8 °F 48% 30.07 in 10.0 mi West 12.7 mph - N/A   Clear
1:55 AM 32.0 °F 22.5 °F 15.8 °F 51% 30.08 in 10.0 mi West 12.7 mph - N/A   Clear
2:15 AM 32.0 °F 23.0 °F 15.8 °F 51% 30.07 in 10.0 mi West 11.5 mph - N/A   Clear
2:35 AM 30.2 °F 19.8 °F 15.8 °F 55% 30.07 in 10.0 mi West 13.8 mph - N/A   Clear
2:55 AM 30.2 °F 19.8 °F 17.6 °F 60% 30.06 in 10.0 mi West 13.8 mph - N/A   Clear
3:15 AM 30.2 °F 19.3 °F 17.6 °F 60% 30.06 in 10.0 mi West 15.0 mph 20.7 mph N/A   Clear
3:35 AM 30.2 °F 19.8 °F 17.6 °F 60% 30.05 in 10.0 mi West 13.8 mph 23.0 mph N/A   Clear
3:55 AM 30.2 °F 18.5 °F 17.6 °F 60% 30.05 in 10.0 mi WSW 17.3 mph 20.7 mph N/A   Clear
4:35 AM 32.0 °F 21.2 °F 17.6 °F 55% 30.03 in 10.0 mi WSW 16.1 mph 23.0 mph N/A   Clear
4:55 AM 30.2 °F 18.5 °F 17.6 °F 60% 30.03 in 10.0 mi WSW 17.3 mph 23.0 mph N/A   Clear
5:15 AM 30.2 °F 18.9 °F 17.6 °F 60% 30.01 in 10.0 mi WSW 16.1 mph 24.2 mph N/A   Clear
5:35 AM 30.2 °F 17.8 °F 19.4 °F 64% 30.01 in 10.0 mi WSW 19.6 mph 26.5 mph N/A   Clear
5:55 AM 32.0 °F 20.1 °F 17.6 °F 55% 30.01 in 10.0 mi WSW 19.6 mph 25.3 mph N/A   Clear
6:15 AM 32.0 °F 20.8 °F 17.6 °F 55% 30.01 in 10.0 mi WSW 17.3 mph 26.5 mph N/A   Clear
6:35 AM 30.2 °F 18.5 °F 19.4 °F 64% 30.02 in 10.0 mi WSW 17.3 mph 24.2 mph N/A   Clear
7:15 AM 32.0 °F 20.5 °F 19.4 °F 60% 30.02 in 10.0 mi WSW 18.4 mph - N/A   Clear
7:35 AM 32.0 °F 20.1 °F 19.4 °F 60% 30.02 in 10.0 mi WSW 19.6 mph 27.6 mph N/A   Clear
7:55 AM 33.8 °F 21.9 °F 19.4 °F 56% 30.02 in 10.0 mi WSW 21.9 mph 29.9 mph N/A   Clear
8:15 AM 33.8 °F 22.8 °F 21.2 °F 60% 30.02 in 10.0 mi WSW 18.4 mph 24.2 mph N/A   Clear
8:35 AM 35.6 °F 25.2 °F 21.2 °F 56% 30.02 in 10.0 mi WSW 18.4 mph 24.2 mph N/A   Clear
8:55 AM 35.6 °F 24.8 °F 21.2 °F 56% 30.01 in 10.0 mi WSW 19.6 mph 25.3 mph N/A   Clear
9:15 AM 37.4 °F 26.9 °F 21.2 °F 52% 30.01 in 10.0 mi WSW 20.7 mph 25.3 mph N/A   Clear
9:55 AM 39.2 °F 28.5 °F 21.2 °F 49% 30.00 in 10.0 mi WSW 24.2 mph 28.8 mph N/A   Clear
10:15 AM 39.2 °F 28.7 °F 23.0 °F 52% 30.00 in 10.0 mi WSW 23.0 mph 28.8 mph N/A   Clear
10:35 AM 41.0 °F 31.6 °F 23.0 °F 49% 29.99 in 10.0 mi WSW 20.7 mph 27.6 mph N/A   Clear
10:55 AM 42.8 °F 33.8 °F 24.8 °F 49% 29.98 in 10.0 mi WSW 21.9 mph 27.6 mph N/A   Clear
11:35 AM 44.6 °F 36.9 °F 24.8 °F 46% 29.95 in 10.0 mi WSW 18.4 mph 25.3 mph N/A   Clear
11:55 AM 44.6 °F 37.2 °F 26.6 °F 49% 29.94 in 10.0 mi WSW 17.3 mph 24.2 mph N/A   Clear
12:15 PM 44.6 °F 35.9 °F 26.6 °F 49% 29.93 in 10.0 mi WSW 23.0 mph 27.6 mph N/A   Clear
1:15 PM 46.4 °F 40.4 °F 28.4 °F 50% 29.90 in 10.0 mi WSW 13.8 mph - N/A   Clear
1:35 PM 46.4 °F 40.1 °F 30.2 °F 53% 29.89 in 10.0 mi WSW 15.0 mph - N/A   Clear
1:55 PM 46.4 °F 39.8 °F 28.4 °F 50% 29.88 in 10.0 mi SW 16.1 mph 23.0 mph N/A   Clear
2:15 PM 46.4 °F 39.8 °F 30.2 °F 53% 29.88 in 10.0 mi SW 16.1 mph 20.7 mph N/A   Clear
2:35 PM 46.4 °F 39.8 °F 28.4 °F 50% 29.87 in 10.0 mi SW 16.1 mph - N/A   Clear
2:55 PM 46.4 °F 39.8 °F 28.4 °F 50% 29.87 in 10.0 mi SW 16.1 mph 21.9 mph N/A   Clear
3:15 PM 44.6 °F 37.8 °F 32.0 °F 61% 29.86 in 10.0 mi SSW 15.0 mph - N/A   Clear
3:35 PM 44.6 °F 37.4 °F 32.0 °F 61% 29.86 in 10.0 mi SW 16.1 mph - N/A   Clear
3:55 PM 44.6 °F 37.4 °F 30.2 °F 57% 29.86 in 10.0 mi SW 16.1 mph 25.3 mph N/A   Clear
4:35 PM 42.8 °F 34.8 °F 30.2 °F 61% 29.86 in 10.0 mi SW 17.3 mph 23.0 mph N/A   Clear
4:55 PM 42.8 °F 35.1 °F 30.2 °F 61% 29.86 in 10.0 mi SW 16.1 mph 23.0 mph N/A   Clear
5:15 PM 41.0 °F 32.2 °F 30.2 °F 65% 29.87 in 10.0 mi SW 18.4 mph 24.2 mph N/A   Clear
5:35 PM 41.0 °F 32.2 °F 30.2 °F 65% 29.87 in 10.0 mi SW 18.4 mph 24.2 mph N/A   Clear
5:55 PM 41.0 °F 32.2 °F 30.2 °F 65% 29.87 in 10.0 mi SW 18.4 mph 25.3 mph N/A   Clear
6:15 PM 41.0 °F 32.2 °F 28.4 °F 61% 29.88 in 10.0 mi SW 18.4 mph 23.0 mph N/A   Clear
6:35 PM 41.0 °F 32.5 °F 30.2 °F 65% 29.89 in 10.0 mi SW 17.3 mph - N/A   Clear
7:15 PM 41.0 °F 32.2 °F 28.4 °F 61% 29.90 in 10.0 mi WSW 18.4 mph - N/A   Clear
7:35 PM 41.0 °F 32.2 °F 28.4 °F 61% 29.90 in 10.0 mi SW 18.4 mph - N/A   Clear
7:55 PM 41.0 °F 32.2 °F 30.2 °F 65% 29.90 in 10.0 mi SW 18.4 mph - N/A   Clear
8:15 PM 41.0 °F 32.5 °F 30.2 °F 65% 29.90 in 10.0 mi WSW 17.3 mph - N/A   Clear
8:35 PM 41.0 °F 32.8 °F 30.2 °F 65% 29.91 in 10.0 mi SW 16.1 mph - N/A   Clear
8:55 PM 41.0 °F 32.8 °F 30.2 °F 65% 29.91 in 10.0 mi SW 16.1 mph - N/A   Clear
9:55 PM 41.0 °F 33.9 °F 30.2 °F 65% 29.91 in 10.0 mi SW 12.7 mph - N/A   Clear
10:15 PM 41.0 °F 33.9 °F 32.0 °F 70% 29.90 in 10.0 mi SW 12.7 mph - N/A   Clear
11:36 PM 41.0 °F 33.1 °F 32.0 °F 70% 29.89 in 10.0 mi SW 15.0 mph - N/A   Clear